createdAt,value
2023-03-24T00:00:48.667Z,98921.00
2023-03-24T00:03:17.981Z,98920.00
2023-03-24T00:05:47.985Z,98909.00
2023-03-24T00:08:17.263Z,98911.00
2023-03-24T00:10:47.664Z,98895.00
2023-03-24T00:13:19.480Z,98895.00
2023-03-24T00:15:49.069Z,98892.00
2023-03-24T00:18:16.853Z,98893.00
2023-03-24T00:20:46.461Z,98892.00
2023-03-24T00:23:15.654Z,98881.00
2023-03-24T00:25:43.348Z,98883.00
2023-03-24T00:28:11.488Z,98882.00
2023-03-24T00:30:41.439Z,98879.00
2023-03-24T00:33:10.499Z,98876.00
2023-03-24T00:35:39.517Z,98875.00
2023-03-24T00:38:07.249Z,98869.00
2023-03-24T00:40:34.845Z,98872.00
2023-03-24T00:43:03.936Z,98874.00
2023-03-24T00:45:34.778Z,98869.00
2023-03-24T00:48:02.720Z,98868.00
2023-03-24T00:50:33.847Z,98861.00
2023-03-24T00:53:02.331Z,98859.00
2023-03-24T00:55:30.152Z,98852.00
2023-03-24T00:57:58.029Z,98855.00
2023-03-24T01:00:26.307Z,98849.00
2023-03-24T01:02:55.804Z,98843.00
2023-03-24T01:05:25.014Z,98855.00
2023-03-24T01:07:53.042Z,98845.00
2023-03-24T01:10:21.908Z,98840.00
2023-03-24T01:12:50.013Z,98840.00
2023-03-24T01:15:18.892Z,98838.00
2023-03-24T01:17:49.529Z,98837.00
2023-03-24T01:20:17.514Z,98831.00
2023-03-24T01:22:46.482Z,98835.00
2023-03-24T01:25:16.889Z,98826.00
2023-03-24T01:27:45.303Z,98831.00
2023-03-24T01:30:13.869Z,98826.00
2023-03-24T01:32:41.987Z,98812.00
2023-03-24T01:35:10.051Z,98813.00
2023-03-24T01:37:38.270Z,98811.00
2023-03-24T01:40:11.826Z,98812.00
2023-03-24T01:42:39.804Z,98805.00
2023-03-24T01:45:26.330Z,98794.00
2023-03-24T01:47:54.199Z,98784.00
2023-03-24T01:50:22.089Z,98797.00
2023-03-24T01:52:49.871Z,98780.00
2023-03-24T01:55:19.995Z,98772.00
2023-03-24T01:57:50.878Z,98766.00
2023-03-24T02:00:19.523Z,98758.00
2023-03-24T02:03:10.106Z,98742.00
2023-03-24T02:05:49.824Z,98735.00
2023-03-24T02:08:36.511Z,98720.00
2023-03-24T02:11:04.366Z,98713.00
2023-03-24T02:13:41.774Z,98705.00
2023-03-24T02:16:30.085Z,98703.00
2023-03-24T02:19:17.090Z,98704.00
2023-03-24T02:21:51.208Z,98702.00
2023-03-24T02:24:39.230Z,98694.00
2023-03-24T02:27:25.397Z,98696.00
2023-03-24T02:29:59.701Z,98701.00
2023-03-24T02:32:46.148Z,98696.00
2023-03-24T02:35:34.063Z,98694.00
2023-03-24T02:38:02.138Z,98692.00
2023-03-24T02:40:36.177Z,98698.00
2023-03-24T02:43:05.600Z,98700.00
2023-03-24T02:45:42.447Z,98701.00
2023-03-24T02:48:25.533Z,98687.00
2023-03-24T02:51:04.200Z,98693.00
2023-03-24T02:53:53.411Z,98687.00
2023-03-24T02:56:36.282Z,98686.00
2023-03-24T02:59:18.966Z,98678.00
2023-03-24T03:01:54.569Z,98676.00
2023-03-24T03:04:46.691Z,98664.00
2023-03-24T03:07:17.117Z,98660.00
2023-03-24T03:09:48.094Z,98655.00
2023-03-24T03:12:15.975Z,98651.00
2023-03-24T03:14:48.624Z,98644.00
2023-03-24T03:17:20.540Z,98643.00
2023-03-24T03:19:50.609Z,98645.00
2023-03-24T03:22:19.445Z,98646.00
2023-03-24T03:24:50.737Z,98643.00
2023-03-24T03:27:23.079Z,98631.00
2023-03-24T03:29:55.020Z,98629.00
2023-03-24T03:32:25.138Z,98630.00
2023-03-24T03:34:54.159Z,98634.00
2023-03-24T03:37:44.867Z,98636.00
2023-03-24T03:40:21.536Z,98623.00
2023-03-24T03:42:54.354Z,98620.00
2023-03-24T03:45:22.002Z,98626.00
2023-03-24T03:47:49.851Z,98620.00
2023-03-24T03:51:10.358Z,98623.00
2023-03-24T03:53:51.128Z,98615.00
2023-03-24T03:56:20.221Z,98625.00
2023-03-24T03:58:58.743Z,98629.00
2023-03-24T04:01:27.818Z,98615.00
2023-03-24T04:04:30.021Z,98613.00
2023-03-24T04:07:24.401Z,98608.00
2023-03-24T04:10:11.415Z,98615.00
2023-03-24T04:12:57.570Z,98603.00
2023-03-24T04:16:03.778Z,98612.00
2023-03-24T04:19:12.824Z,98604.00
2023-03-24T04:21:48.814Z,98596.00
2023-03-24T04:24:17.416Z,98601.00
2023-03-24T04:27:06.778Z,98591.00
2023-03-24T04:29:42.616Z,98591.00
2023-03-24T04:32:11.508Z,98589.00
2023-03-24T04:34:41.378Z,98582.00
2023-03-24T04:37:38.374Z,98586.00
2023-03-24T04:40:22.885Z,98579.00
2023-03-24T04:42:52.838Z,98569.00
2023-03-24T04:45:26.084Z,98557.00
2023-03-24T04:48:26.411Z,98561.00
2023-03-24T04:51:29.635Z,98555.00
2023-03-24T04:54:12.143Z,98555.00
2023-03-24T04:56:48.051Z,98551.00
2023-03-24T04:59:54.408Z,98540.00
2023-03-24T05:05:38.389Z,98529.00
2023-03-24T05:08:06.363Z,98526.00
2023-03-24T05:10:34.684Z,98525.00
2023-03-24T05:13:04.006Z,98516.00
2023-03-24T05:15:53.160Z,98516.00
2023-03-24T05:18:29.535Z,98516.00
2023-03-24T05:20:58.263Z,98509.00
2023-03-24T05:23:26.308Z,98509.00
2023-03-24T05:25:55.587Z,98508.00
2023-03-24T05:28:25.124Z,98516.00
2023-03-24T05:30:55.088Z,98505.00
2023-03-24T05:33:48.869Z,98513.00
2023-03-24T05:36:19.933Z,98517.00
2023-03-24T05:38:54.978Z,98512.00
2023-03-24T05:41:25.155Z,98506.00
2023-03-24T05:43:53.041Z,98504.00
2023-03-24T05:46:21.147Z,98490.00
2023-03-24T05:48:51.589Z,98486.00
2023-03-24T05:51:20.975Z,98484.00
2023-03-24T05:54:00.682Z,98487.00
2023-03-24T05:56:37.864Z,98481.00
2023-03-24T05:59:25.751Z,98482.00
2023-03-24T06:01:57.063Z,98487.00
2023-03-24T06:04:32.633Z,98498.00
2023-03-24T06:07:07.260Z,98482.00
2023-03-24T06:09:39.003Z,98492.00
2023-03-24T06:12:08.561Z,98491.00
2023-03-24T06:14:38.944Z,98486.00
2023-03-24T06:17:17.630Z,98484.00
2023-03-24T06:19:51.314Z,98477.00
2023-03-24T06:22:48.826Z,98488.00
2023-03-24T06:25:21.737Z,98497.00
2023-03-24T06:28:10.623Z,98494.00
2023-03-24T06:30:39.115Z,98490.00
2023-03-24T06:33:08.373Z,98491.00
2023-03-24T06:35:37.096Z,98502.00
2023-03-24T06:38:08.806Z,98484.00
2023-03-24T06:40:38.259Z,98495.00
2023-03-24T06:43:07.063Z,98487.00
2023-03-24T06:45:39.847Z,98494.00
2023-03-24T06:48:11.064Z,98494.00
2023-03-24T06:50:40.068Z,98488.00
2023-03-24T06:53:10.694Z,98484.00
2023-03-24T06:55:39.532Z,98490.00
2023-03-24T06:58:10.477Z,98478.00
2023-03-24T07:00:56.222Z,98486.00
2023-03-24T07:03:31.890Z,98477.00
2023-03-24T07:06:23.224Z,98481.00
2023-03-24T07:08:57.333Z,98481.00
2023-03-24T07:11:28.151Z,98483.00
2023-03-24T07:13:59.306Z,98485.00
2023-03-24T07:16:29.004Z,98485.00
2023-03-24T07:19:09.783Z,98486.00
2023-03-24T07:21:40.222Z,98489.00
2023-03-24T07:24:08.059Z,98490.00
2023-03-24T07:26:46.377Z,98501.00
2023-03-24T07:29:25.350Z,98501.00
2023-03-24T07:32:12.665Z,98514.00
2023-03-24T07:34:41.596Z,98506.00
2023-03-24T07:37:09.446Z,98525.00
2023-03-24T07:39:37.361Z,98536.00
2023-03-24T07:42:06.408Z,98538.00
2023-03-24T07:44:53.531Z,98544.00
2023-03-24T07:47:21.481Z,98557.00
2023-03-24T07:49:49.144Z,98558.00
2023-03-24T07:52:16.716Z,98555.00
2023-03-24T07:54:47.421Z,98555.00
2023-03-24T07:57:37.450Z,98566.00
2023-03-24T08:00:15.239Z,98567.00
2023-03-24T08:02:54.190Z,98570.00
2023-03-24T08:05:42.430Z,98581.00
2023-03-24T08:08:41.388Z,98583.00
2023-03-24T08:11:09.194Z,98574.00
2023-03-24T08:13:36.950Z,98585.00
2023-03-24T08:16:04.989Z,98594.00
2023-03-24T08:18:35.223Z,98590.00
2023-03-24T08:21:03.007Z,98606.00
2023-03-24T08:23:31.055Z,98602.00
2023-03-24T08:25:58.727Z,98599.00
2023-03-24T08:28:26.494Z,98601.00
2023-03-24T08:30:56.515Z,98608.00
2023-03-24T08:33:24.484Z,98606.00
2023-03-24T08:35:58.101Z,98609.00
2023-03-24T08:38:30.790Z,98613.00
2023-03-24T08:40:59.306Z,98619.00
2023-03-24T08:43:27.083Z,98616.00
2023-03-24T08:45:54.808Z,98612.00
2023-03-24T08:48:23.568Z,98614.00
2023-03-24T08:50:51.845Z,98622.00
2023-03-24T08:53:19.692Z,98627.00
2023-03-24T08:55:47.647Z,98624.00
2023-03-24T08:58:16.151Z,98628.00
2023-03-24T09:00:44.461Z,98637.00
2023-03-24T09:03:18.733Z,98634.00
2023-03-24T09:05:46.860Z,98651.00
2023-03-24T09:08:15.207Z,98653.00
2023-03-24T09:10:43.264Z,98660.00
2023-03-24T09:13:11.242Z,98670.00
2023-03-24T09:15:39.070Z,98678.00
2023-03-24T09:18:06.808Z,98675.00
2023-03-24T09:20:34.389Z,98683.00
2023-03-24T09:23:02.017Z,98684.00
2023-03-24T09:25:29.775Z,98683.00
2023-03-24T09:27:57.705Z,98673.00
2023-03-24T09:30:25.581Z,98670.00
2023-03-24T09:32:53.462Z,98669.00
2023-03-24T09:35:21.286Z,98667.00
2023-03-24T09:37:49.071Z,98669.00
2023-03-24T09:40:21.658Z,98668.00
2023-03-24T09:42:54.731Z,98678.00
2023-03-24T09:45:22.512Z,98672.00
2023-03-24T09:47:51.881Z,98666.00
2023-03-24T09:50:27.768Z,98678.00
2023-03-24T09:52:57.119Z,98663.00
2023-03-24T09:55:26.225Z,98672.00
2023-03-24T09:57:56.656Z,98681.00
2023-03-24T10:00:26.738Z,98673.00
2023-03-24T10:02:57.384Z,98685.00
2023-03-24T10:05:27.491Z,98700.00
2023-03-24T10:08:14.122Z,98700.00
2023-03-24T10:11:02.798Z,98697.00
2023-03-24T10:13:33.577Z,98689.00
2023-03-24T10:16:20.163Z,98691.00
2023-03-24T10:19:03.804Z,98699.00
2023-03-24T10:21:32.941Z,98705.00
2023-03-24T10:24:07.796Z,98706.00
2023-03-24T10:26:54.108Z,98706.00
2023-03-24T10:29:23.345Z,98707.00
2023-03-24T10:31:57.108Z,98705.00
2023-03-24T10:34:26.891Z,98708.00
2023-03-24T10:36:55.228Z,98707.00
2023-03-24T10:39:33.985Z,98709.00
2023-03-24T10:42:12.915Z,98723.00
2023-03-24T10:44:40.747Z,98733.00
2023-03-24T10:47:10.106Z,98738.00
2023-03-24T10:49:38.258Z,98740.00
2023-03-24T10:52:09.378Z,98739.00
2023-03-24T10:54:37.286Z,98752.00
2023-03-24T10:57:05.564Z,98745.00
2023-03-24T10:59:33.403Z,98761.00
2023-03-24T11:02:10.502Z,98752.00
2023-03-24T11:04:39.581Z,98758.00
2023-03-24T11:07:17.686Z,98768.00
2023-03-24T11:09:46.221Z,98769.00
2023-03-24T11:12:27.523Z,98747.00
2023-03-24T11:15:21.085Z,98752.00
2023-03-24T11:17:57.094Z,98746.00
2023-03-24T11:20:29.818Z,98756.00
2023-03-24T11:23:00.790Z,98766.00
2023-03-24T11:25:31.309Z,98753.00
2023-03-24T11:28:02.444Z,98760.00
2023-03-24T11:30:33.512Z,98751.00
2023-03-24T11:33:01.136Z,98738.00
2023-03-24T11:35:39.295Z,98747.00
2023-03-24T11:38:09.305Z,98733.00
2023-03-24T11:40:37.063Z,98739.00
2023-03-24T11:43:06.191Z,98735.00
2023-03-24T11:45:46.791Z,98748.00
2023-03-24T11:48:18.078Z,98738.00
2023-03-24T11:50:45.873Z,98748.00
2023-03-24T11:53:21.160Z,98750.00
2023-03-24T11:55:58.260Z,98752.00
2023-03-24T11:58:44.718Z,98744.00
2023-03-24T12:01:26.140Z,98749.00
2023-03-24T12:04:00.380Z,98756.00
2023-03-24T12:06:37.526Z,98745.00
2023-03-24T12:09:08.462Z,98741.00
2023-03-24T12:11:54.713Z,98767.00
2023-03-24T12:14:42.774Z,98772.00
2023-03-24T12:17:13.558Z,98773.00
2023-03-24T12:20:00.061Z,98771.00
2023-03-24T12:22:34.820Z,98771.00
2023-03-24T12:25:21.472Z,98768.00
2023-03-24T12:28:04.441Z,98779.00
2023-03-24T12:30:44.712Z,98795.00
2023-03-24T12:33:15.774Z,98806.00
2023-03-24T12:35:43.706Z,98804.00
2023-03-24T12:38:26.492Z,98831.00
2023-03-24T12:41:14.459Z,98841.00
2023-03-24T12:43:48.130Z,98837.00
2023-03-24T12:46:37.125Z,98825.00
2023-03-24T12:49:31.364Z,98832.00
2023-03-24T12:52:08.042Z,98837.00
2023-03-24T12:54:48.004Z,98821.00
2023-03-24T12:57:19.124Z,98810.00
2023-03-24T12:59:48.333Z,98794.00
2023-03-24T13:02:31.831Z,98780.00
2023-03-24T13:05:07.404Z,98776.00
2023-03-24T13:07:42.566Z,98772.00
2023-03-24T13:10:14.702Z,98781.00
2023-03-24T13:12:44.774Z,98788.00
2023-03-24T13:15:12.469Z,98782.00
2023-03-24T13:17:45.993Z,98772.00
2023-03-24T13:20:14.656Z,98764.00
2023-03-24T13:22:42.673Z,98763.00
2023-03-24T13:25:14.461Z,98753.00
2023-03-24T13:27:42.425Z,98754.00
2023-03-24T13:30:20.882Z,98751.00
2023-03-24T13:32:49.515Z,98752.00
2023-03-24T13:35:17.361Z,98756.00
2023-03-24T13:37:52.281Z,98756.00
2023-03-24T13:40:21.113Z,98752.00
2023-03-24T13:42:50.876Z,98762.00
2023-03-24T13:45:32.817Z,98758.00
2023-03-24T13:48:21.996Z,98758.00
2023-03-24T13:50:55.476Z,98762.00
2023-03-24T13:53:28.862Z,98757.00
2023-03-24T13:55:58.521Z,98769.00
2023-03-24T13:58:28.577Z,98769.00
2023-03-24T14:01:11.587Z,98772.00
2023-03-24T14:03:39.822Z,98775.00
2023-03-24T14:06:11.275Z,98776.00
2023-03-24T14:08:44.078Z,98767.00
2023-03-24T14:11:32.554Z,98785.00
2023-03-24T14:14:07.338Z,98785.00
2023-03-24T14:16:35.763Z,98793.00
2023-03-24T14:19:18.960Z,98783.00
2023-03-24T14:21:52.796Z,98786.00
2023-03-24T14:24:23.014Z,98784.00
2023-03-24T14:26:51.306Z,98786.00
2023-03-24T14:29:34.033Z,98778.00
2023-03-24T14:32:17.178Z,98779.00
2023-03-24T14:34:51.580Z,98782.00
2023-03-24T14:37:19.416Z,98772.00
2023-03-24T14:39:47.491Z,98788.00
2023-03-24T14:42:27.406Z,98780.00
2023-03-24T14:44:56.432Z,98783.00
2023-03-24T14:47:29.908Z,98787.00
2023-03-24T14:50:01.397Z,98795.00
2023-03-24T14:52:37.416Z,98794.00
2023-03-24T14:55:07.354Z,98783.00
2023-03-24T14:57:35.639Z,98776.00
2023-03-24T15:00:12.549Z,98781.00
2023-03-24T15:02:40.165Z,98776.00
2023-03-24T15:05:14.031Z,98778.00
2023-03-24T15:07:42.142Z,98781.00
2023-03-24T15:10:16.535Z,98787.00
2023-03-24T15:12:45.549Z,98791.00
2023-03-24T15:15:16.821Z,98775.00
2023-03-24T15:17:44.701Z,98783.00
2023-03-24T15:20:26.304Z,98778.00
2023-03-24T15:22:55.235Z,98772.00
2023-03-24T15:25:27.247Z,98777.00
2023-03-24T15:27:55.900Z,98775.00
2023-03-24T15:30:23.816Z,98778.00
2023-03-24T15:32:51.785Z,98773.00
2023-03-24T15:35:28.919Z,98773.00
2023-03-24T15:37:57.143Z,98771.00
2023-03-24T15:40:27.923Z,98772.00
2023-03-24T15:42:56.553Z,98780.00
2023-03-24T15:45:33.494Z,98770.00
2023-03-24T15:48:14.270Z,98768.00
2023-03-24T15:50:42.487Z,98776.00
2023-03-24T15:53:19.404Z,98775.00
2023-03-24T15:55:47.262Z,98772.00
2023-03-24T15:58:23.096Z,98780.00
2023-03-24T16:00:53.446Z,98781.00
2023-03-24T16:03:26.715Z,98770.00
2023-03-24T16:05:55.474Z,98776.00
2023-03-24T16:08:41.508Z,98764.00
2023-03-24T16:11:12.077Z,98755.00
2023-03-24T16:13:44.510Z,98765.00
2023-03-24T16:16:15.389Z,98771.00
2023-03-24T16:18:47.346Z,98770.00
2023-03-24T16:21:16.168Z,98768.00
2023-03-24T16:23:44.459Z,98759.00
2023-03-24T16:26:19.258Z,98763.00
2023-03-24T16:28:48.308Z,98771.00
2023-03-24T16:31:25.913Z,98770.00
2023-03-24T16:33:55.259Z,98761.00
2023-03-24T16:36:26.859Z,98771.00
2023-03-24T16:38:55.041Z,98774.00
2023-03-24T16:41:23.014Z,98782.00
2023-03-24T16:43:50.719Z,98774.00
2023-03-24T16:46:23.009Z,98776.00
2023-03-24T16:48:51.103Z,98777.00
2023-03-24T16:51:18.874Z,98792.00
2023-03-24T16:53:46.801Z,98802.00
2023-03-24T16:56:15.661Z,98796.00
2023-03-24T16:58:43.878Z,98804.00
2023-03-24T17:01:27.004Z,98810.00
2023-03-24T17:03:55.546Z,98814.00
2023-03-24T17:06:23.417Z,98826.00
2023-03-24T17:08:51.284Z,98831.00
2023-03-24T17:11:29.188Z,98831.00
2023-03-24T17:14:04.899Z,98829.00
2023-03-24T17:16:36.912Z,98831.00
2023-03-24T17:19:05.353Z,98836.00
2023-03-24T17:21:34.366Z,98843.00
2023-03-24T17:24:02.521Z,98847.00
2023-03-24T17:26:31.606Z,98855.00
2023-03-24T17:28:59.837Z,98858.00
2023-03-24T17:31:27.722Z,98867.00
2023-03-24T17:33:55.432Z,98883.00
2023-03-24T17:36:22.952Z,98907.00
2023-03-24T17:38:50.669Z,98917.00
2023-03-24T17:41:18.219Z,98938.00
2023-03-24T17:43:46.025Z,98943.00
2023-03-24T17:46:13.667Z,98946.00
2023-03-24T17:48:43.499Z,98949.00
2023-03-24T17:51:12.791Z,98958.00
2023-03-24T17:53:40.494Z,98952.00
2023-03-24T17:56:08.499Z,98955.00
2023-03-24T17:58:36.622Z,98951.00
2023-03-24T18:01:08.391Z,98953.00
2023-03-24T18:03:38.309Z,98949.00
2023-03-24T18:06:07.672Z,98947.00
2023-03-24T18:08:36.381Z,98936.00
2023-03-24T18:11:07.671Z,98948.00
2023-03-24T18:13:35.928Z,98945.00
2023-03-24T18:16:13.957Z,98938.00
2023-03-24T18:18:47.984Z,98942.00
2023-03-24T18:21:16.239Z,98952.00
2023-03-24T18:23:44.113Z,98953.00
2023-03-24T18:26:11.851Z,98963.00
2023-03-24T18:31:58.029Z,98953.00
2023-03-24T18:34:26.888Z,98946.00
2023-03-24T18:36:54.486Z,98958.00
2023-03-24T18:39:22.923Z,98942.00
2023-03-24T18:41:51.887Z,98938.00
2023-03-24T18:44:21.774Z,98939.00
2023-03-24T18:46:50.633Z,98925.00
2023-03-24T18:49:18.372Z,98931.00
2023-03-24T18:51:46.880Z,98926.00
2023-03-24T18:54:14.509Z,98923.00
2023-03-24T18:56:42.411Z,98926.00
2023-03-24T18:59:11.992Z,98920.00
2023-03-24T19:01:39.867Z,98919.00
2023-03-24T19:04:08.335Z,98916.00
2023-03-24T19:06:37.474Z,98917.00
2023-03-24T19:09:05.714Z,98925.00
2023-03-24T19:11:33.205Z,98927.00
2023-03-24T19:14:01.132Z,98927.00
2023-03-24T19:16:29.078Z,98934.00
2023-03-24T19:18:58.134Z,98937.00
2023-03-24T19:21:26.045Z,98927.00
2023-03-24T19:23:53.759Z,98915.00
2023-03-24T19:26:21.486Z,98920.00
2023-03-24T19:28:49.201Z,98929.00
2023-03-24T19:31:18.677Z,98919.00
2023-03-24T19:33:46.837Z,98928.00
2023-03-24T19:36:15.836Z,98924.00
2023-03-24T19:38:44.367Z,98930.00
2023-03-24T19:41:13.019Z,98931.00
2023-03-24T19:43:40.977Z,98928.00
2023-03-24T19:46:09.020Z,98922.00
2023-03-24T19:48:37.053Z,98924.00
2023-03-24T19:51:04.971Z,98928.00
2023-03-24T19:53:32.702Z,98928.00
2023-03-24T19:56:01.299Z,98919.00
2023-03-24T19:58:29.193Z,98914.00
2023-03-24T20:00:56.941Z,98923.00
2023-03-24T20:03:26.006Z,98928.00
2023-03-24T20:05:53.686Z,98912.00
2023-03-24T20:08:21.872Z,98910.00
2023-03-24T20:10:49.847Z,98911.00
2023-03-24T20:13:17.584Z,98905.00
2023-03-24T20:15:45.990Z,98918.00
2023-03-24T20:18:13.937Z,98910.00
2023-03-24T20:20:44.195Z,98905.00
2023-03-24T20:23:11.962Z,98898.00
2023-03-24T20:25:42.852Z,98903.00
2023-03-24T20:28:10.729Z,98902.00
2023-03-24T20:30:41.037Z,98897.00
2023-03-24T20:33:08.977Z,98899.00
2023-03-24T20:35:36.958Z,98894.00
2023-03-24T20:38:04.872Z,98882.00
2023-03-24T20:40:32.577Z,98868.00
2023-03-24T20:43:00.281Z,98885.00
2023-03-24T20:45:28.594Z,98872.00
2023-03-24T20:47:56.792Z,98870.00
2023-03-24T20:50:25.004Z,98869.00
2023-03-24T20:52:52.508Z,98861.00
2023-03-24T20:55:20.553Z,98874.00
2023-03-24T20:57:48.533Z,98877.00
2023-03-24T21:00:16.772Z,98870.00
2023-03-24T21:02:44.509Z,98876.00
2023-03-24T21:05:12.305Z,98869.00
2023-03-24T21:07:43.938Z,98873.00
2023-03-24T21:10:14.823Z,98871.00
2023-03-24T21:12:52.370Z,98873.00
2023-03-24T21:15:25.442Z,98873.00
2023-03-24T21:17:53.881Z,98876.00
2023-03-24T21:20:27.031Z,98873.00
2023-03-24T21:22:56.061Z,98872.00
2023-03-24T21:25:25.070Z,98869.00
2023-03-24T21:27:53.181Z,98877.00
2023-03-24T21:30:21.548Z,98881.00
2023-03-24T21:32:50.036Z,98886.00
2023-03-24T21:35:18.196Z,98885.00
2023-03-24T21:37:47.020Z,98876.00
2023-03-24T21:40:18.262Z,98882.00
2023-03-24T21:42:46.957Z,98872.00
2023-03-24T21:45:15.805Z,98874.00
2023-03-24T21:47:46.274Z,98869.00
2023-03-24T21:50:19.365Z,98873.00
2023-03-24T21:52:47.830Z,98858.00
2023-03-24T21:55:16.004Z,98858.00
2023-03-24T21:57:44.516Z,98856.00
2023-03-24T22:00:16.917Z,98862.00
2023-03-24T22:02:49.945Z,98865.00
2023-03-24T22:05:19.310Z,98853.00
2023-03-24T22:07:47.199Z,98859.00
2023-03-24T22:10:16.067Z,98859.00
2023-03-24T22:12:44.176Z,98857.00
2023-03-24T22:15:12.081Z,98858.00
2023-03-24T22:17:39.876Z,98848.00
2023-03-24T22:20:09.366Z,98856.00
2023-03-24T22:22:37.290Z,98854.00
2023-03-24T22:25:06.877Z,98855.00
2023-03-24T22:27:34.825Z,98855.00
2023-03-24T22:30:03.030Z,98849.00
2023-03-24T22:32:30.752Z,98851.00
2023-03-24T22:34:58.855Z,98852.00
2023-03-24T22:37:26.571Z,98854.00
2023-03-24T22:39:54.234Z,98852.00
2023-03-24T22:42:22.279Z,98851.00
2023-03-24T22:44:50.028Z,98855.00
2023-03-24T22:47:20.581Z,98860.00
2023-03-24T22:49:48.167Z,98854.00
2023-03-24T22:52:16.157Z,98847.00
2023-03-24T22:54:44.856Z,98853.00
2023-03-24T22:57:12.881Z,98849.00
2023-03-24T22:59:40.740Z,98848.00
2023-03-24T23:02:10.211Z,98851.00
2023-03-24T23:04:40.677Z,98850.00
2023-03-24T23:07:08.660Z,98848.00
2023-03-24T23:09:36.747Z,98839.00
2023-03-24T23:12:04.941Z,98840.00
2023-03-24T23:14:32.648Z,98841.00
2023-03-24T23:17:00.350Z,98833.00
2023-03-24T23:19:28.518Z,98841.00
2023-03-24T23:21:56.526Z,98835.00
2023-03-24T23:24:24.299Z,98835.00
2023-03-24T23:26:52.051Z,98834.00
2023-03-24T23:29:19.720Z,98836.00
2023-03-24T23:31:47.487Z,98837.00
2023-03-24T23:34:15.093Z,98841.00
2023-03-24T23:36:45.249Z,98843.00
2023-03-24T23:39:13.001Z,98845.00
2023-03-24T23:41:40.747Z,98844.00
2023-03-24T23:44:08.653Z,98852.00
2023-03-24T23:46:36.508Z,98847.00
2023-03-24T23:49:04.096Z,98843.00
2023-03-24T23:51:31.686Z,98849.00
2023-03-24T23:53:59.883Z,98843.00
2023-03-24T23:56:30.823Z,98844.00
2023-03-24T23:58:58.647Z,98838.00
